Time;durP1;ratioP1;P1;durP2;ratioP2;P2;SDS_P1;SDS_P2;PMS_P1;PMS_P2;Temp;Humidity;BMP_temperature;BMP_pressure;BME280_temperature;BME280_humidity;BME280_pressure;Samples;Min_cycle;Max_cycle;Signal;HPM_P1;HPM_P2
2021/05/02 00:00:41;;;;;;;38.77;21.50;;;10.60;97.30;;;;;;4956028;28;20845;-91
2021/05/02 00:03:07;;;;;;;38.13;21.43;;;10.60;97.30;;;;;;4956625;28;20198;-89
2021/05/02 00:05:35;;;;;;;37.67;20.87;;;10.60;97.30;;;;;;4975614;28;20190;-89
2021/05/02 00:08:01;;;;;;;41.67;22.97;;;10.60;97.30;;;;;;4956132;28;20183;-90
2021/05/02 00:10:29;;;;;;;42.13;22.63;;;10.60;97.30;;;;;;4974322;28;20442;-89
2021/05/02 00:12:58;;;;;;;40.43;21.97;;;10.60;97.30;;;;;;4956872;28;20555;-90
2021/05/02 00:15:24;;;;;;;42.47;23.43;;;10.50;97.30;;;;;;4957055;28;20441;-90
2021/05/02 00:17:51;;;;;;;37.50;21.80;;;10.50;97.30;;;;;;4974364;28;20425;-90
2021/05/02 00:20:20;;;;;;;45.03;23.50;;;10.40;97.30;;;;;;4975317;28;20416;-91
2021/05/02 00:22:48;;;;;;;45.37;25.20;;;10.40;97.30;;;;;;4957238;28;20425;-90
2021/05/02 00:25:17;;;;;;;48.93;23.90;;;10.40;97.30;;;;;;4957520;28;20533;-87
2021/05/02 00:27:43;;;;;;;49.00;24.40;;;10.30;97.30;;;;;;4957683;28;20421;-90
2021/05/02 00:30:11;;;;;;;44.87;24.43;;;10.30;97.30;;;;;;4957356;28;20491;-91
2021/05/02 00:32:38;;;;;;;40.93;22.47;;;10.30;97.30;;;;;;4956273;28;20541;-90
2021/05/02 00:35:05;;;;;;;40.93;23.50;;;10.30;97.30;;;;;;4956198;28;20445;-90
2021/05/02 00:37:32;;;;;;;47.23;23.50;;;10.30;97.30;;;;;;4973596;28;20410;-88
2021/05/02 00:39:57;;;;;;;45.80;25.20;;;10.20;97.30;;;;;;4974087;28;20874;-90
2021/05/02 00:42:29;;;;;;;44.93;23.47;;;10.20;97.30;;;;;;4956546;28;20489;-90
2021/05/02 00:45:07;;;;;;;43.67;22.70;;;10.20;97.30;;;;;;4956324;28;20685;-90
2021/05/02 00:47:37;;;;;;;40.87;23.20;;;10.10;97.30;;;;;;4956487;28;20421;-92
2021/05/02 00:50:10;;;;;;;46.77;25.23;;;10.10;97.30;;;;;;4972543;28;20923;-89
2021/05/02 00:52:48;;;;;;;48.20;22.30;;;10.00;97.30;;;;;;4971992;28;20534;-91
2021/05/02 00:55:22;;;;;;;47.17;24.33;;;10.00;97.30;;;;;;4955040;28;20500;-91
2021/05/02 00:57:58;;;;;;;42.70;22.50;;;10.00;97.30;;;;;;4972500;28;20422;-91
2021/05/02 01:00:26;;;;;;;45.30;23.27;;;9.90;97.30;;;;;;4955357;28;20453;-90
2021/05/02 01:03:03;;;;;;;43.40;23.23;;;9.90;97.30;;;;;;4955550;28;20430;-90
2021/05/02 01:05:30;;;;;;;45.03;23.67;;;9.90;97.30;;;;;;4973334;28;20566;-89
2021/05/02 01:07:57;;;;;;;42.17;23.00;;;9.90;97.30;;;;;;4955623;28;20433;-90
2021/05/02 01:10:27;;;;;;;40.03;21.90;;;9.90;97.30;;;;;;4972988;28;20421;-90
2021/05/02 01:12:54;;;;;;;43.73;23.40;;;9.90;97.30;;;;;;4955584;28;20846;-90
2021/05/02 01:15:33;;;;;;;46.90;23.50;;;9.90;97.30;;;;;;4956617;28;20871;-90
2021/05/02 01:18:00;;;;;;;43.23;23.10;;;9.90;97.30;;;;;;4956839;28;20418;-91
2021/05/02 01:20:31;;;;;;;43.13;22.03;;;9.90;97.30;;;;;;4957376;28;20422;-90
2021/05/02 01:22:58;;;;;;;39.30;22.97;;;9.90;97.30;;;;;;4956575;28;20425;-90
2021/05/02 01:25:25;;;;;;;43.37;23.90;;;9.80;97.30;;;;;;4957249;28;20530;-90
2021/05/02 01:27:55;;;;;;;41.33;22.17;;;9.80;97.30;;;;;;4957333;28;20484;-90
2021/05/02 01:30:22;;;;;;;44.73;22.83;;;9.80;97.30;;;;;;4957421;28;20425;-90
2021/05/02 01:32:49;;;;;;;47.77;23.40;;;9.70;97.30;;;;;;4957185;28;20465;-92
2021/05/02 01:35:15;;;;;;;47.90;23.20;;;9.70;97.30;;;;;;4956615;28;20867;-91
2021/05/02 01:37:40;;;;;;;45.67;25.23;;;9.70;97.30;;;;;;4956061;28;20418;-92
2021/05/02 01:40:07;;;;;;;49.60;24.93;;;9.70;97.30;;;;;;4956652;28;20806;-91
2021/05/02 01:42:34;;;;;;;48.77;23.50;;;9.70;97.30;;;;;;4956242;28;20266;-92
2021/05/02 01:45:00;;;;;;;40.90;21.97;;;9.60;97.30;;;;;;4955620;28;20516;-90
2021/05/02 01:47:27;;;;;;;48.10;24.60;;;9.60;97.30;;;;;;4955884;28;20944;-90
2021/05/02 01:50:08;;;;;;;44.43;23.33;;;9.60;97.30;;;;;;4973552;28;20203;-91
2021/05/02 01:52:39;;;;;;;51.20;25.47;;;9.60;97.30;;;;;;4958201;28;20552;-92
2021/05/02 01:55:06;;;;;;;51.23;25.90;;;9.60;97.30;;;;;;4959171;28;20441;-90
2021/05/02 01:57:33;;;;;;;42.73;23.97;;;9.60;97.30;;;;;;4957945;28;20799;-90
2021/05/02 02:00:01;;;;;;;56.03;24.83;;;9.50;97.30;;;;;;4960202;28;20430;-93
2021/05/02 02:02:29;;;;;;;46.80;24.40;;;9.50;97.30;;;;;;4960096;28;20464;-90
2021/05/02 02:04:57;;;;;;;46.93;25.03;;;9.50;97.30;;;;;;4959312;28;21071;-90
2021/05/02 02:07:25;;;;;;;52.87;26.00;;;9.50;97.30;;;;;;4959598;28;20422;-91
2021/05/02 02:09:57;;;;;;;45.93;25.60;;;9.40;97.30;;;;;;4959807;28;20500;-90
2021/05/02 02:12:23;;;;;;;47.20;23.00;;;9.40;97.30;;;;;;4959871;28;20516;-90
2021/05/02 02:31:50;;;;;;;52.73;26.07;;;9.30;97.30;;;;;;4976367;23;20499;-91
2021/05/02 02:34:37;;;;;;;44.77;23.97;;;9.20;97.30;;;;;;4824609;29;20425;-89
2021/05/02 02:37:27;;;;;;;47.33;23.47;;;9.20;97.30;;;;;;4886080;29;20442;-89
2021/05/02 02:39:57;;;;;;;45.77;24.30;;;9.20;97.30;;;;;;4893070;29;20522;-92
2021/05/02 02:42:26;;;;;;;45.53;25.07;;;9.20;97.30;;;;;;4895958;29;20474;-89
2021/05/02 02:45:42;;;;;;;;;;;;;;;;;;;;;
2021/05/02 02:48:10;;;;;;;45.97;23.97;;;9.10;97.30;;;;;;4937301;29;20424;-86
2021/05/02 02:50:36;;;;;;;47.40;24.07;;;9.10;97.30;;;;;;4921608;29;20428;-86
2021/05/02 02:53:06;;;;;;;51.33;24.40;;;9.10;97.30;;;;;;4938776;29;20554;-86
2021/05/02 02:55:37;;;;;;;51.80;25.80;;;9.10;97.30;;;;;;4921484;29;20443;-85
2021/05/02 02:58:05;;;;;;;49.27;24.30;;;9.10;97.30;;;;;;4938663;29;20463;-85
2021/05/02 03:00:34;;;;;;;48.20;23.87;;;9.00;97.30;;;;;;4921451;29;20451;-89
2021/05/02 03:03:14;;;;;;;51.03;26.60;;;9.00;97.30;;;;;;4938007;29;20416;-88
2021/05/02 03:05:41;;;;;;;47.73;23.43;;;9.00;97.30;;;;;;4936951;29;20543;-88
2021/05/02 03:08:10;;;;;;;45.43;23.57;;;9.00;97.30;;;;;;4937220;29;20794;-86
2021/05/02 03:10:39;;;;;;;44.10;23.90;;;9.00;97.30;;;;;;4919131;29;20427;-85
2021/05/02 03:13:08;;;;;;;53.17;26.83;;;9.00;97.30;;;;;;4920096;29;20463;-87
2021/05/02 03:15:34;;;;;;;53.27;24.60;;;8.90;97.30;;;;;;4920161;29;20531;-88
2021/05/02 03:18:12;;;;;;;47.30;24.27;;;8.90;97.30;;;;;;4920542;29;20803;-85
2021/05/02 03:20:38;;;;;;;49.27;25.10;;;8.90;97.30;;;;;;4920805;29;20511;-85
2021/05/02 03:23:14;;;;;;;47.90;23.13;;;8.90;97.30;;;;;;4920420;29;20416;-85
2021/05/02 03:25:43;;;;;;;49.17;24.80;;;8.90;97.30;;;;;;4920799;29;20474;-85
2021/05/02 03:28:15;;;;;;;52.03;24.37;;;8.90;97.30;;;;;;4920609;29;20428;-88
2021/05/02 03:30:45;;;;;;;54.17;26.93;;;8.90;97.30;;;;;;4937626;29;20434;-85
2021/05/02 03:33:12;;;;;;;48.90;25.87;;;8.80;97.30;;;;;;4920276;29;20466;-86
2021/05/02 03:35:40;;;;;;;51.23;26.50;;;8.80;97.30;;;;;;4921249;29;20427;-86
2021/05/02 03:38:16;;;;;;;52.93;24.83;;;8.80;97.30;;;;;;4921575;29;20868;-86
2021/05/02 03:40:44;;;;;;;50.10;23.67;;;8.80;97.30;;;;;;4938845;29;20407;-85
2021/05/02 03:43:09;;;;;;;45.87;23.97;;;8.80;97.30;;;;;;4921802;29;20510;-86
2021/05/02 03:45:35;;;;;;;53.50;27.40;;;8.80;97.30;;;;;;4938605;29;20555;-86
2021/05/02 03:48:00;;;;;;;50.93;25.80;;;8.80;97.30;;;;;;4921588;29;20713;-85
2021/05/02 03:50:26;;;;;;;52.57;25.37;;;8.80;97.30;;;;;;4922060;29;20180;-86
2021/05/02 03:52:51;;;;;;;51.07;25.27;;;8.80;97.30;;;;;;4937341;29;20204;-88
2021/05/02 03:55:17;;;;;;;56.77;27.67;;;8.80;97.30;;;;;;4938332;29;20214;-87
2021/05/02 03:57:43;;;;;;;49.87;24.80;;;8.80;97.30;;;;;;4921421;29;20183;-88
2021/05/02 04:00:09;;;;;;;52.97;26.57;;;8.80;97.30;;;;;;4936604;29;20939;-88
2021/05/02 04:02:34;;;;;;;52.97;25.23;;;8.80;97.30;;;;;;4937457;29;20188;-87
2021/05/02 04:05:00;;;;;;;58.63;28.50;;;8.80;97.30;;;;;;4919944;29;20442;-88
2021/05/02 04:07:25;;;;;;;49.33;25.73;;;8.80;97.30;;;;;;4936166;29;20230;-88
2021/05/02 04:09:51;;;;;;;52.87;26.50;;;8.70;97.30;;;;;;4920172;29;20180;-88
2021/05/02 04:12:17;;;;;;;55.80;27.03;;;8.70;97.30;;;;;;4919793;29;20203;-88
2021/05/02 04:14:42;;;;;;;57.47;25.90;;;8.70;97.30;;;;;;4936914;29;20191;-87
2021/05/02 04:17:13;;;;;;;55.87;26.23;;;8.70;97.30;;;;;;4919862;29;20172;-87
2021/05/02 04:19:41;;;;;;;55.23;26.10;;;8.60;97.30;;;;;;4920115;29;20172;-88
2021/05/02 04:22:07;;;;;;;52.73;26.07;;;8.60;97.30;;;;;;4919867;29;20428;-87
2021/05/02 04:24:33;;;;;;;52.90;25.80;;;8.60;97.30;;;;;;4919636;29;20975;-88
2021/05/02 04:27:00;;;;;;;53.67;26.47;;;8.60;97.30;;;;;;4918796;29;20428;-87
2021/05/02 04:29:30;;;;;;;54.13;25.83;;;8.60;97.30;;;;;;4918602;29;20184;-87
2021/05/02 04:31:55;;;;;;;57.83;27.57;;;8.50;97.30;;;;;;4935492;29;20515;-88
2021/05/02 04:34:22;;;;;;;55.50;27.63;;;8.50;97.30;;;;;;4935573;29;20950;-88
2021/05/02 04:36:49;;;;;;;60.97;27.00;;;8.50;97.30;;;;;;4919351;29;20561;-89
2021/05/02 04:39:15;;;;;;;60.10;27.23;;;8.50;97.30;;;;;;4936170;29;20424;-88
2021/05/02 04:41:43;;;;;;;57.23;27.67;;;8.50;97.30;;;;;;4918986;29;20507;-88
2021/05/02 04:44:09;;;;;;;54.97;28.00;;;8.50;97.30;;;;;;4918720;29;20463;-88
2021/05/02 04:46:35;;;;;;;57.00;25.63;;;8.50;97.30;;;;;;4919164;29;20907;-88
2021/05/02 04:49:01;;;;;;;57.70;26.93;;;8.50;97.30;;;;;;4935768;29;20557;-88
2021/05/02 04:51:27;;;;;;;60.60;26.37;;;8.50;97.30;;;;;;4934680;29;20558;-88
2021/05/02 04:53:53;;;;;;;53.40;24.70;;;8.50;97.30;;;;;;4936040;29;20179;-88
2021/05/02 04:56:21;;;;;;;53.53;25.70;;;8.50;97.30;;;;;;4918990;29;20459;-89
2021/05/02 04:58:46;;;;;;;59.37;25.47;;;8.50;97.30;;;;;;4918865;29;20274;-88
2021/05/02 05:01:15;;;;;;;52.80;26.10;;;8.60;97.30;;;;;;4933575;29;20439;-88
2021/05/02 05:03:43;;;;;;;60.87;29.10;;;8.60;97.30;;;;;;4935286;29;20176;-88
2021/05/02 05:06:08;;;;;;;58.60;26.33;;;8.60;97.30;;;;;;4920520;29;20419;-88
2021/05/02 05:08:41;;;;;;;63.27;28.70;;;8.60;97.30;;;;;;4937349;29;20424;-89
2021/05/02 05:11:07;;;;;;;67.43;29.47;;;8.60;97.30;;;;;;4924695;29;20171;-88
2021/05/02 05:13:34;;;;;;;59.03;28.40;;;8.70;97.30;;;;;;4939453;29;20411;-88
2021/05/02 05:16:05;;;;;;;60.43;27.07;;;8.70;97.30;;;;;;4942679;29;20697;-89
2021/05/02 05:22:00;;;;;;;55.30;27.30;;;8.70;97.30;;;;;;4923723;29;20418;-89
2021/05/02 05:24:26;;;;;;;65.67;29.10;;;8.70;97.30;;;;;;4929986;23;20861;-74
2021/05/02 05:26:51;;;;;;;60.03;27.67;;;8.70;97.30;;;;;;4925893;29;20413;-75
2021/05/02 05:29:17;;;;;;;59.83;27.77;;;8.70;97.30;;;;;;4948103;29;20188;-75
2021/05/02 05:31:42;;;;;;;62.00;29.33;;;8.70;97.30;;;;;;4930699;29;20222;-74
2021/05/02 05:34:08;;;;;;;65.87;30.67;;;8.70;97.30;;;;;;4935440;29;20670;-74
2021/05/02 05:36:33;;;;;;;65.37;31.30;;;8.70;97.30;;;;;;4949921;29;20756;-74
2021/05/02 05:38:59;;;;;;;65.20;30.67;;;8.70;97.30;;;;;;4938250;29;20186;-74
2021/05/02 05:41:24;;;;;;;76.73;33.37;;;8.80;97.30;;;;;;4938120;29;20250;-75
2021/05/02 05:43:50;;;;;;;73.37;33.47;;;8.80;97.30;;;;;;4937599;29;20175;-75
2021/05/02 05:46:16;;;;;;;74.30;32.37;;;8.80;97.30;;;;;;4938575;29;20183;-74
2021/05/02 05:48:42;;;;;;;70.10;32.33;;;8.80;97.30;;;;;;4953379;29;20172;-74
2021/05/02 05:51:08;;;;;;;67.70;29.70;;;8.90;97.30;;;;;;4937582;29;20622;-75
2021/05/02 05:53:35;;;;;;;69.00;32.80;;;8.90;97.30;;;;;;4935431;29;20812;-75
2021/05/02 05:56:02;;;;;;;60.53;28.10;;;8.90;97.30;;;;;;4937260;29;20419;-75
2021/05/02 05:58:29;;;;;;;59.93;27.50;;;8.90;97.30;;;;;;4937364;29;20411;-75
2021/05/02 06:00:56;;;;;;;62.87;28.80;;;8.90;97.30;;;;;;4935861;29;20522;-75
2021/05/02 06:03:22;;;;;;;52.97;27.27;;;8.90;97.30;;;;;;4937591;29;20423;-75
2021/05/02 06:05:47;;;;;;;60.27;26.77;;;8.90;97.30;;;;;;4938049;29;20478;-75
2021/05/02 06:08:13;;;;;;;54.37;24.93;;;8.90;97.30;;;;;;4937923;29;20242;-75
2021/05/02 06:10:39;;;;;;;45.70;23.53;;;8.90;97.30;;;;;;4937747;29;20243;-75
2021/05/02 06:13:07;;;;;;;39.67;20.20;;;8.90;97.30;;;;;;4945336;29;20242;-73
2021/05/02 06:15:33;;;;;;;43.00;20.20;;;8.80;97.30;;;;;;4962788;29;20426;-73
2021/05/02 06:17:58;;;;;;;40.23;19.43;;;8.80;97.30;;;;;;4945501;29;20445;-73
2021/05/02 06:20:24;;;;;;;29.57;15.47;;;8.80;97.30;;;;;;4960493;29;20556;-73
2021/05/02 06:22:50;;;;;;;27.53;15.47;;;8.70;97.30;;;;;;4944242;29;20215;-73
2021/05/02 06:25:16;;;;;;;31.83;16.90;;;8.70;97.30;;;;;;4946214;29;20232;-73
2021/05/02 06:27:42;;;;;;;31.93;17.67;;;8.70;97.30;;;;;;4936458;29;20427;-73
2021/05/02 06:30:08;;;;;;;32.03;18.57;;;8.70;97.30;;;;;;4938812;29;20259;-72
2021/05/02 06:32:34;;;;;;;31.70;16.10;;;8.70;97.30;;;;;;4944789;29;20292;-72
2021/05/02 06:35:00;;;;;;;26.20;14.90;;;8.70;97.30;;;;;;4942774;29;20415;-72
2021/05/02 06:37:26;;;;;;;15.77;9.60;;;8.80;97.30;;;;;;4962787;29;20437;-73
2021/05/02 06:39:52;;;;;;;15.83;10.40;;;8.80;97.30;;;;;;4946283;29;20434;-73
2021/05/02 06:42:18;;;;;;;22.20;12.03;;;8.70;97.30;;;;;;4945990;29;20199;-73
2021/05/02 06:44:43;;;;;;;21.43;12.13;;;8.70;97.30;;;;;;4944482;28;20183;-74
2021/05/02 06:47:09;;;;;;;22.00;12.73;;;8.70;97.30;;;;;;4937233;29;20556;-77
2021/05/02 06:49:34;;;;;;;24.43;13.10;;;8.70;97.30;;;;;;4936799;29;20225;-75
2021/05/02 06:52:00;;;;;;;24.13;12.73;;;8.70;97.30;;;;;;4931921;29;20593;-74
2021/05/02 06:54:26;;;;;;;20.63;12.20;;;8.70;97.30;;;;;;4954201;29;20192;-76
2021/05/02 06:56:52;;;;;;;23.47;12.43;;;8.70;97.30;;;;;;4936818;29;20186;-76
2021/05/02 06:59:17;;;;;;;24.33;13.90;;;8.70;97.30;;;;;;4936872;29;20604;-76
2021/05/02 07:01:43;;;;;;;27.60;15.47;;;8.70;97.30;;;;;;4932965;29;20195;-75
2021/05/02 07:04:09;;;;;;;23.97;14.20;;;8.80;97.30;;;;;;4940783;29;20218;-76
2021/05/02 07:06:41;;;;;;;29.10;14.43;;;8.90;97.30;;;;;;4928147;29;20283;-76
2021/05/02 07:09:07;;;;;;;25.30;13.47;;;8.90;97.30;;;;;;4917533;29;20465;-76
2021/05/02 07:11:33;;;;;;;27.00;14.50;;;8.90;97.30;;;;;;4918787;29;20487;-75
2021/05/02 07:13:59;;;;;;;29.27;13.97;;;8.90;97.30;;;;;;4918773;29;20639;-76
2021/05/02 07:16:25;;;;;;;26.70;14.00;;;9.00;97.30;;;;;;4918355;29;20180;-75
2021/05/02 07:18:51;;;;;;;27.53;13.73;;;9.00;97.30;;;;;;4919281;29;20431;-75
2021/05/02 07:21:19;;;;;;;29.70;14.87;;;9.00;97.30;;;;;;4918771;29;20192;-76
2021/05/02 07:23:47;;;;;;;23.37;13.70;;;9.10;97.30;;;;;;4918284;29;20967;-75
2021/05/02 07:26:13;;;;;;;28.80;15.20;;;9.00;97.30;;;;;;4918877;29;20953;-76
2021/05/02 07:28:45;;;;;;;29.33;16.70;;;9.00;97.30;;;;;;4920789;29;20412;-74
2021/05/02 07:31:12;;;;;;;32.73;17.37;;;9.00;97.30;;;;;;4924580;29;20444;-75
2021/05/02 07:33:39;;;;;;;30.07;16.67;;;9.00;97.30;;;;;;4925011;29;20463;-74
2021/05/02 07:36:05;;;;;;;34.80;16.87;;;9.00;97.30;;;;;;4924882;29;20431;-74
2021/05/02 07:38:31;;;;;;;30.40;15.80;;;9.00;97.30;;;;;;4924898;29;20423;-73
2021/05/02 07:40:58;;;;;;;35.50;17.20;;;9.00;97.30;;;;;;4925745;29;20432;-74
2021/05/02 07:43:24;;;;;;;32.77;17.03;;;9.00;97.30;;;;;;4925130;29;20175;-74
2021/05/02 07:45:51;;;;;;;27.90;15.27;;;9.10;97.30;;;;;;4925436;29;20439;-74
2021/05/02 07:48:16;;;;;;;33.50;16.57;;;9.00;97.30;;;;;;4911055;29;20429;-74
2021/05/02 07:50:42;;;;;;;34.10;17.17;;;9.00;97.30;;;;;;4907518;29;20494;-74
2021/05/02 07:53:07;;;;;;;36.93;19.00;;;9.00;97.30;;;;;;4908018;29;20211;-74
2021/05/02 07:55:34;;;;;;;35.03;19.00;;;9.00;97.30;;;;;;4924361;29;20231;-74
2021/05/02 07:58:00;;;;;;;39.07;17.70;;;9.10;97.30;;;;;;4901239;29;20271;-76
2021/05/02 08:00:26;;;;;;;40.23;20.17;;;9.10;97.30;;;;;;4899506;29;20512;-76
2021/05/02 08:02:51;;;;;;;41.17;19.17;;;9.20;97.30;;;;;;4899137;29;20433;-76
2021/05/02 08:05:17;;;;;;;38.43;20.57;;;9.20;97.30;;;;;;4898821;29;20429;-76
2021/05/02 08:07:43;;;;;;;39.27;19.87;;;9.30;97.30;;;;;;4899065;29;20196;-77
2021/05/02 08:10:10;;;;;;;45.87;21.90;;;9.20;97.30;;;;;;4898250;29;20652;-77
2021/05/02 08:12:35;;;;;;;48.50;22.67;;;9.20;97.30;;;;;;4898122;29;20535;-76
2021/05/02 08:15:01;;;;;;;42.93;22.97;;;9.10;97.30;;;;;;4899260;29;20903;-74
2021/05/02 08:17:27;;;;;;;46.67;22.63;;;9.00;97.30;;;;;;4915512;29;20677;-77
2021/05/02 08:19:52;;;;;;;51.13;24.37;;;8.90;97.30;;;;;;4898209;29;20180;-75
2021/05/02 08:22:19;;;;;;;59.70;25.10;;;8.80;97.30;;;;;;4899023;29;20204;-75
2021/05/02 08:24:45;;;;;;;60.73;28.10;;;8.80;97.30;;;;;;4905065;29;20290;-76
2021/05/02 08:27:12;;;;;;;67.30;29.17;;;8.70;97.30;;;;;;4916956;29;20432;-76
2021/05/02 08:29:38;;;;;;;60.90;26.87;;;8.60;97.30;;;;;;4917783;29;20426;-74
2021/05/02 08:32:04;;;;;;;58.73;25.93;;;8.60;97.30;;;;;;4933465;29;20463;-75
2021/05/02 08:34:29;;;;;;;63.40;27.43;;;8.50;97.30;;;;;;4917010;29;20211;-75
2021/05/02 08:36:55;;;;;;;62.83;29.40;;;8.50;97.30;;;;;;4917293;29;20412;-75
2021/05/02 08:39:21;;;;;;;55.93;26.47;;;8.50;97.30;;;;;;4933949;29;20183;-76
2021/05/02 08:41:46;;;;;;;62.63;29.23;;;8.50;97.30;;;;;;4916949;29;20215;-76
2021/05/02 08:46:52;;;;;;;71.30;32.10;;;8.60;97.30;;;;;;4950542;29;20594;-88
2021/05/02 08:49:19;;;;;;;68.60;31.47;;;8.60;97.30;;;;;;4952702;29;20423;-87
2021/05/02 08:51:45;;;;;;;58.53;28.40;;;8.70;97.30;;;;;;4952638;29;20222;-88
2021/05/02 08:54:11;;;;;;;69.23;31.40;;;8.70;97.30;;;;;;4954712;29;20768;-88
2021/05/02 08:56:37;;;;;;;65.83;28.97;;;8.70;97.30;;;;;;4952821;28;20453;-88
2021/05/02 08:59:04;;;;;;;61.10;28.20;;;8.70;97.30;;;;;;4952642;29;20266;-88
2021/05/02 09:01:31;;;;;;;57.50;26.80;;;8.70;97.30;;;;;;4952461;29;20190;-87
2021/05/02 09:04:01;;;;;;;65.67;29.33;;;8.60;97.30;;;;;;4952227;29;20419;-88
2021/05/02 09:06:29;;;;;;;75.50;30.70;;;8.60;97.30;;;;;;4955667;28;20976;-88
2021/05/02 09:08:57;;;;;;;67.43;28.90;;;8.60;97.30;;;;;;4955158;28;20458;-88
2021/05/02 09:11:40;;;;;;;65.10;29.63;;;8.60;97.30;;;;;;4953969;29;20839;-87
2021/05/02 09:14:30;;;;;;;64.50;28.17;;;8.60;97.30;;;;;;4952311;29;20474;-87
2021/05/02 09:17:01;;;;;;;63.47;28.50;;;8.60;97.30;;;;;;4952581;29;20421;-87
2021/05/02 09:19:32;;;;;;;60.73;27.73;;;8.60;97.30;;;;;;4952015;29;20423;-88
2021/05/02 09:22:12;;;;;;;65.30;29.10;;;8.70;97.30;;;;;;4952553;29;20510;-88
2021/05/02 09:24:38;;;;;;;69.97;28.57;;;8.70;97.30;;;;;;4953311;28;20449;-87
2021/05/02 09:27:14;;;;;;;60.30;28.97;;;8.70;97.30;;;;;;4953675;29;20452;-87
2021/05/02 09:29:42;;;;;;;66.00;27.73;;;8.60;97.30;;;;;;4953491;29;20506;-87
2021/05/02 09:32:09;;;;;;;60.50;27.03;;;8.60;97.30;;;;;;4952179;29;20837;-87
2021/05/02 09:34:35;;;;;;;59.30;25.93;;;8.50;97.30;;;;;;4952045;28;20442;-87
2021/05/02 09:37:06;;;;;;;61.83;28.37;;;8.50;97.30;;;;;;4951871;29;20427;-87
2021/05/02 09:39:45;;;;;;;55.37;25.43;;;8.50;97.30;;;;;;4952354;29;20419;-87
2021/05/02 09:42:18;;;;;;;62.70;29.50;;;8.60;97.30;;;;;;4952288;29;20485;-88
2021/05/02 09:44:56;;;;;;;68.10;28.40;;;8.60;97.30;;;;;;4952193;28;20449;-88
2021/05/02 09:47:35;;;;;;;64.53;27.87;;;8.70;97.30;;;;;;4951840;29;20446;-88
2021/05/02 09:50:18;;;;;;;60.80;27.57;;;8.70;97.30;;;;;;4936465;29;20418;-88
2021/05/02 09:52:47;;;;;;;58.20;28.13;;;8.60;97.30;;;;;;4936023;29;20474;-88
2021/05/02 09:55:23;;;;;;;60.93;28.70;;;8.60;97.30;;;;;;4953152;28;20888;-88
2021/05/02 09:58:08;;;;;;;61.17;28.80;;;8.60;97.30;;;;;;4936102;29;20622;-88
2021/05/02 10:00:35;;;;;;;62.20;29.20;;;8.50;97.30;;;;;;4935846;29;20450;-88
2021/05/02 10:03:02;;;;;;;60.63;28.30;;;8.50;97.30;;;;;;4936374;29;20799;-88
2021/05/02 10:05:29;;;;;;;62.80;29.80;;;8.50;97.30;;;;;;4936375;29;20446;-88
2021/05/02 10:07:55;;;;;;;62.97;27.90;;;8.60;97.30;;;;;;4953122;29;20486;-87
2021/05/02 10:10:23;;;;;;;60.03;27.33;;;8.60;97.30;;;;;;4953543;29;20791;-87
2021/05/02 10:12:50;;;;;;;53.00;26.50;;;8.60;97.30;;;;;;4935833;29;20497;-88
2021/05/02 10:15:17;;;;;;;53.83;26.83;;;8.50;97.30;;;;;;4936255;29;20450;-87
2021/05/02 10:17:43;;;;;;;60.13;26.10;;;8.50;97.30;;;;;;4935762;29;20949;-87
2021/05/02 10:20:13;;;;;;;53.80;25.77;;;8.50;97.30;;;;;;4937449;29;20422;-88
2021/05/02 10:22:40;;;;;;;50.20;26.80;;;8.50;97.30;;;;;;4939024;29;20187;-88
2021/05/02 10:25:07;;;;;;;57.63;26.90;;;8.40;97.30;;;;;;4939301;29;20453;-87
2021/05/02 10:27:50;;;;;;;50.83;24.67;;;8.50;97.30;;;;;;4956857;29;20506;-87
2021/05/02 10:30:22;;;;;;;55.30;25.73;;;8.40;97.30;;;;;;4956719;29;20422;-87
2021/05/02 10:32:52;;;;;;;58.03;25.33;;;8.40;97.30;;;;;;4956481;29;21019;-87
2021/05/02 10:35:18;;;;;;;52.00;24.30;;;8.50;97.30;;;;;;4939264;29;20501;-87
2021/05/02 10:37:53;;;;;;;55.70;26.90;;;8.50;97.30;;;;;;4938754;29;20419;-87
2021/05/02 10:40:19;;;;;;;49.97;24.23;;;8.50;97.30;;;;;;4925734;29;20211;-87
2021/05/02 10:42:53;;;;;;;53.93;25.37;;;8.60;97.30;;;;;;4958410;28;20422;-87
2021/05/02 10:45:27;;;;;;;53.77;25.13;;;8.60;97.30;;;;;;4941753;29;20318;-87
2021/05/02 10:47:56;;;;;;;46.50;23.87;;;8.60;97.30;;;;;;4957577;28;20433;-87
2021/05/02 10:50:45;;;;;;;49.33;24.53;;;8.60;97.30;;;;;;4952610;28;20493;-84
2021/05/02 10:53:16;;;;;;;46.00;22.77;;;8.60;97.30;;;;;;4942649;29;20462;-88
2021/05/02 10:56:01;;;;;;;45.30;21.80;;;8.60;97.30;;;;;;4956005;23;20493;-83
2021/05/02 10:58:38;;;;;;;42.20;22.53;;;8.70;97.30;;;;;;4957494;28;20429;-83
2021/05/02 11:01:09;;;;;;;40.23;20.60;;;8.70;97.30;;;;;;4964173;28;20983;-83
2021/05/02 11:03:40;;;;;;;44.50;20.73;;;8.80;97.30;;;;;;4979940;28;20428;-84
2021/05/02 11:06:30;;;;;;;41.80;21.20;;;8.70;97.30;;;;;;4986486;28;20423;-86
2021/05/02 11:09:00;;;;;;;38.27;20.83;;;8.70;97.30;;;;;;4980304;28;20421;-84
2021/05/02 11:11:49;;;;;;;37.23;19.60;;;8.70;97.30;;;;;;4982191;28;20448;-83
2021/05/02 11:14:15;;;;;;;39.90;21.43;;;8.70;97.30;;;;;;4986663;28;20491;-83
2021/05/02 11:17:09;;;;;;;40.30;22.33;;;8.70;97.30;;;;;;4982813;28;20942;-83
2021/05/02 11:19:35;;;;;;;35.50;20.37;;;8.70;97.30;;;;;;4981755;28;20504;-82
2021/05/02 11:22:06;;;;;;;44.23;21.43;;;8.80;97.30;;;;;;4998678;28;20465;-84
2021/05/02 11:24:44;;;;;;;42.43;21.20;;;8.80;97.30;;;;;;4967648;28;20180;-82
2021/05/02 11:27:24;;;;;;;40.47;20.77;;;8.80;97.30;;;;;;4981181;28;20425;-85
2021/05/02 11:32:30;;;;;;;41.60;21.80;;;8.80;97.30;;;;;;4997368;28;20834;-84
2021/05/02 11:35:01;;;;;;;43.03;22.43;;;8.80;97.30;;;;;;4980444;28;20177;-82
2021/05/02 11:37:50;;;;;;;39.93;19.80;;;8.70;97.30;;;;;;4978379;28;20409;-84
2021/05/02 11:40:25;;;;;;;40.40;19.90;;;8.70;97.30;;;;;;4978701;28;20492;-85
2021/05/02 11:42:51;;;;;;;39.10;20.43;;;8.60;97.30;;;;;;5002574;28;20412;-84
2021/05/02 11:45:20;;;;;;;40.77;20.90;;;8.60;97.30;;;;;;4985560;28;20416;-84
2021/05/02 11:47:47;;;;;;;38.13;19.90;;;8.60;97.30;;;;;;4986700;28;20200;-83
2021/05/02 11:50:13;;;;;;;37.00;19.90;;;8.60;97.30;;;;;;4987014;28;20427;-83
2021/05/02 11:52:53;;;;;;;37.17;20.77;;;8.60;97.30;;;;;;5006221;28;20554;-84
2021/05/02 11:55:45;;;;;;;38.73;19.73;;;8.60;97.30;;;;;;4985781;28;20493;-84
2021/05/02 11:58:15;;;;;;;38.67;20.57;;;8.70;97.30;;;;;;4980194;28;20467;-83
2021/05/02 12:00:48;;;;;;;45.43;20.23;;;8.80;97.30;;;;;;4982822;28;20991;-87
2021/05/02 12:03:39;;;;;;;36.83;20.83;;;8.80;97.30;;;;;;4988537;28;20813;-85
2021/05/02 12:06:11;;;;;;;37.60;19.50;;;8.90;97.30;;;;;;4984797;28;20453;-84
2021/05/02 12:08:37;;;;;;;37.37;20.63;;;8.90;97.30;;;;;;4985027;28;20995;-84
2021/05/02 12:11:08;;;;;;;36.37;20.40;;;9.00;97.30;;;;;;4984471;28;20543;-84
2021/05/02 12:13:50;;;;;;;39.77;20.03;;;9.00;97.30;;;;;;4986682;28;20205;-84
2021/05/02 12:16:29;;;;;;;35.60;20.70;;;9.00;97.30;;;;;;4984126;28;20482;-84
2021/05/02 12:18:59;;;;;;;39.70;22.37;;;9.00;97.30;;;;;;5003011;28;20409;-84
2021/05/02 12:21:49;;;;;;;37.03;19.73;;;9.00;97.30;;;;;;4978035;28;20440;-83
2021/05/02 12:24:20;;;;;;;30.90;18.30;;;9.00;97.30;;;;;;4989170;28;20425;-87
2021/05/02 12:26:51;;;;;;;32.97;18.00;;;9.00;97.30;;;;;;4985884;28;20543;-83
2021/05/02 12:29:32;;;;;;;26.50;15.20;;;8.90;97.30;;;;;;4987409;28;20450;-85
2021/05/02 12:32:07;;;;;;;28.20;17.70;;;8.90;97.30;;;;;;4985122;28;20461;-85
2021/05/02 12:34:42;;;;;;;33.00;18.40;;;8.90;97.30;;;;;;4975106;28;20455;-85
2021/05/02 12:37:12;;;;;;;32.73;18.40;;;8.90;97.30;;;;;;4976867;28;20924;-85
2021/05/02 12:39:39;;;;;;;38.57;20.50;;;9.00;97.30;;;;;;4994443;28;20428;-85
2021/05/02 12:42:06;;;;;;;37.10;20.40;;;9.00;97.30;;;;;;4976769;28;20803;-83
2021/05/02 12:44:34;;;;;;;35.17;19.30;;;9.00;97.30;;;;;;4980209;28;20417;-83
2021/05/02 12:47:21;;;;;;;40.20;20.43;;;9.00;97.30;;;;;;4979363;28;20420;-84
2021/05/02 12:49:58;;;;;;;39.13;20.70;;;8.90;97.30;;;;;;4978406;28;20483;-84
2021/05/02 12:52:39;;;;;;;28.00;16.33;;;9.00;97.30;;;;;;4977345;28;20476;-84
2021/05/02 12:55:18;;;;;;;30.80;16.77;;;8.90;97.30;;;;;;4962253;28;20468;-85
2021/05/02 12:57:51;;;;;;;36.63;19.10;;;8.90;97.30;;;;;;4978936;28;20424;-86
2021/05/02 13:00:20;;;;;;;33.67;18.20;;;8.90;97.30;;;;;;4976013;28;20801;-83
2021/05/02 13:02:47;;;;;;;27.30;17.13;;;8.90;97.30;;;;;;4977717;28;20425;-82
2021/05/02 13:05:13;;;;;;;33.10;16.90;;;8.80;97.30;;;;;;4977977;28;20421;-83
2021/05/02 13:07:44;;;;;;;25.83;16.03;;;8.80;97.30;;;;;;4976801;28;20416;-83
2021/05/02 13:10:19;;;;;;;32.40;19.00;;;8.70;97.30;;;;;;4977592;28;20435;-83
2021/05/02 13:12:57;;;;;;;35.10;16.67;;;8.70;97.30;;;;;;4976417;28;20492;-82
2021/05/02 13:15:41;;;;;;;26.03;15.40;;;8.70;97.30;;;;;;4975553;28;20413;-83